sensor_id;sensor_type;location;lat;lon;timestamp;P1;durP1;ratioP1;P2;durP2;ratioP2
26574;SDS011;67165;50.256;10.978;2023-12-28T00:02:04;17.40;;;8.80;;
26574;SDS011;67165;50.256;10.978;2023-12-28T00:04:30;19.15;;;10.02;;
26574;SDS011;67165;50.256;10.978;2023-12-28T00:06:56;16.23;;;8.75;;
26574;SDS011;67165;50.256;10.978;2023-12-28T00:09:21;13.48;;;8.70;;
26574;SDS011;67165;50.256;10.978;2023-12-28T00:11:47;17.00;;;9.25;;
26574;SDS011;67165;50.256;10.978;2023-12-28T00:14:13;12.93;;;8.43;;
26574;SDS011;67165;50.256;10.978;2023-12-28T00:16:38;14.55;;;8.60;;
26574;SDS011;67165;50.256;10.978;2023-12-28T00:19:04;15.43;;;8.85;;
26574;SDS011;67165;50.256;10.978;2023-12-28T00:21:30;16.65;;;8.95;;
26574;SDS011;67165;50.256;10.978;2023-12-28T00:23:56;22.92;;;12.30;;
26574;SDS011;67165;50.256;10.978;2023-12-28T00:26:21;25.13;;;14.35;;
26574;SDS011;67165;50.256;10.978;2023-12-28T00:28:47;26.05;;;14.70;;
26574;SDS011;67165;50.256;10.978;2023-12-28T00:31:13;16.67;;;10.10;;
26574;SDS011;67165;50.256;10.978;2023-12-28T00:33:39;19.02;;;10.50;;
26574;SDS011;67165;50.256;10.978;2023-12-28T00:36:04;16.13;;;8.57;;
26574;SDS011;67165;50.256;10.978;2023-12-28T00:38:30;14.73;;;7.97;;
26574;SDS011;67165;50.256;10.978;2023-12-28T00:40:57;16.73;;;8.60;;
26574;SDS011;67165;50.256;10.978;2023-12-28T00:43:23;15.55;;;8.02;;
26574;SDS011;67165;50.256;10.978;2023-12-28T00:45:48;16.30;;;9.10;;
26574;SDS011;67165;50.256;10.978;2023-12-28T00:48:14;15.32;;;8.60;;
26574;SDS011;67165;50.256;10.978;2023-12-28T00:50:40;14.25;;;8.93;;
26574;SDS011;67165;50.256;10.978;2023-12-28T00:53:05;16.48;;;9.10;;
26574;SDS011;67165;50.256;10.978;2023-12-28T00:55:31;17.77;;;9.05;;
26574;SDS011;67165;50.256;10.978;2023-12-28T00:57:57;16.80;;;8.65;;
26574;SDS011;67165;50.256;10.978;2023-12-28T01:00:22;14.68;;;8.38;;
26574;SDS011;67165;50.256;10.978;2023-12-28T01:02:48;14.02;;;8.20;;
26574;SDS011;67165;50.256;10.978;2023-12-28T01:05:14;14.85;;;8.13;;
26574;SDS011;67165;50.256;10.978;2023-12-28T01:07:40;13.07;;;7.45;;
26574;SDS011;67165;50.256;10.978;2023-12-28T01:10:06;13.07;;;7.13;;
26574;SDS011;67165;50.256;10.978;2023-12-28T01:12:32;13.98;;;6.95;;
26574;SDS011;67165;50.256;10.978;2023-12-28T01:14:58;10.57;;;6.88;;
26574;SDS011;67165;50.256;10.978;2023-12-28T01:17:24;10.63;;;6.43;;
26574;SDS011;67165;50.256;10.978;2023-12-28T01:19:49;11.85;;;6.80;;
26574;SDS011;67165;50.256;10.978;2023-12-28T01:22:15;11.02;;;6.93;;
26574;SDS011;67165;50.256;10.978;2023-12-28T01:24:40;9.82;;;6.57;;
26574;SDS011;67165;50.256;10.978;2023-12-28T01:27:06;13.75;;;7.13;;
26574;SDS011;67165;50.256;10.978;2023-12-28T01:29:32;17.25;;;7.90;;
26574;SDS011;67165;50.256;10.978;2023-12-28T01:31:59;12.18;;;6.88;;
26574;SDS011;67165;50.256;10.978;2023-12-28T01:34:24;14.60;;;7.88;;
26574;SDS011;67165;50.256;10.978;2023-12-28T01:36:50;17.48;;;8.90;;
26574;SDS011;67165;50.256;10.978;2023-12-28T01:39:15;15.98;;;9.02;;
26574;SDS011;67165;50.256;10.978;2023-12-28T01:41:43;16.27;;;7.85;;
26574;SDS011;67165;50.256;10.978;2023-12-28T01:44:12;17.92;;;9.73;;
26574;SDS011;67165;50.256;10.978;2023-12-28T01:46:38;14.15;;;8.25;;
26574;SDS011;67165;50.256;10.978;2023-12-28T01:49:05;13.30;;;7.50;;
26574;SDS011;67165;50.256;10.978;2023-12-28T01:51:31;13.75;;;7.63;;
26574;SDS011;67165;50.256;10.978;2023-12-28T01:53:57;12.65;;;7.13;;
26574;SDS011;67165;50.256;10.978;2023-12-28T01:56:23;13.20;;;7.35;;
26574;SDS011;67165;50.256;10.978;2023-12-28T01:58:50;14.50;;;7.63;;
26574;SDS011;67165;50.256;10.978;2023-12-28T02:01:17;12.25;;;7.30;;
26574;SDS011;67165;50.256;10.978;2023-12-28T02:03:43;13.90;;;6.65;;
26574;SDS011;67165;50.256;10.978;2023-12-28T02:06:09;12.32;;;6.78;;
26574;SDS011;67165;50.256;10.978;2023-12-28T02:08:35;10.75;;;6.95;;
26574;SDS011;67165;50.256;10.978;2023-12-28T02:11:01;13.90;;;7.18;;
26574;SDS011;67165;50.256;10.978;2023-12-28T02:13:27;13.02;;;7.10;;
26574;SDS011;67165;50.256;10.978;2023-12-28T02:15:54;11.90;;;7.13;;
26574;SDS011;67165;50.256;10.978;2023-12-28T02:18:46;11.27;;;6.65;;
26574;SDS011;67165;50.256;10.978;2023-12-28T02:21:16;9.43;;;6.43;;
26574;SDS011;67165;50.256;10.978;2023-12-28T02:23:47;12.68;;;6.38;;
26574;SDS011;67165;50.256;10.978;2023-12-28T02:26:14;11.23;;;6.68;;
26574;SDS011;67165;50.256;10.978;2023-12-28T02:28:43;10.25;;;6.82;;
26574;SDS011;67165;50.256;10.978;2023-12-28T02:31:12;9.95;;;6.07;;
26574;SDS011;67165;50.256;10.978;2023-12-28T02:33:50;13.18;;;6.15;;
26574;SDS011;67165;50.256;10.978;2023-12-28T02:36:23;12.63;;;6.65;;
26574;SDS011;67165;50.256;10.978;2023-12-28T02:38:51;10.23;;;5.88;;
26574;SDS011;67165;50.256;10.978;2023-12-28T02:41:20;11.65;;;6.95;;
26574;SDS011;67165;50.256;10.978;2023-12-28T02:43:47;12.18;;;6.95;;
26574;SDS011;67165;50.256;10.978;2023-12-28T02:46:13;12.68;;;7.18;;
26574;SDS011;67165;50.256;10.978;2023-12-28T02:48:39;11.85;;;6.82;;
26574;SDS011;67165;50.256;10.978;2023-12-28T02:51:05;11.27;;;6.75;;
26574;SDS011;67165;50.256;10.978;2023-12-28T02:53:31;12.40;;;6.75;;
26574;SDS011;67165;50.256;10.978;2023-12-28T02:55:56;12.45;;;6.43;;
26574;SDS011;67165;50.256;10.978;2023-12-28T02:58:22;12.95;;;6.28;;
26574;SDS011;67165;50.256;10.978;2023-12-28T03:00:47;14.68;;;6.70;;
26574;SDS011;67165;50.256;10.978;2023-12-28T03:03:13;9.95;;;5.97;;
26574;SDS011;67165;50.256;10.978;2023-12-28T03:05:39;9.88;;;6.03;;
26574;SDS011;67165;50.256;10.978;2023-12-28T03:08:06;9.93;;;5.78;;
26574;SDS011;67165;50.256;10.978;2023-12-28T03:10:32;10.80;;;6.03;;
26574;SDS011;67165;50.256;10.978;2023-12-28T03:12:57;11.95;;;6.30;;
26574;SDS011;67165;50.256;10.978;2023-12-28T03:15:23;10.68;;;6.03;;
26574;SDS011;67165;50.256;10.978;2023-12-28T03:17:49;10.93;;;6.05;;
26574;SDS011;67165;50.256;10.978;2023-12-28T03:20:15;8.60;;;5.63;;
26574;SDS011;67165;50.256;10.978;2023-12-28T03:22:40;7.07;;;5.13;;
26574;SDS011;67165;50.256;10.978;2023-12-28T03:25:06;9.25;;;5.75;;
26574;SDS011;67165;50.256;10.978;2023-12-28T03:27:32;9.63;;;5.50;;
26574;SDS011;67165;50.256;10.978;2023-12-28T03:29:57;9.30;;;5.65;;
26574;SDS011;67165;50.256;10.978;2023-12-28T03:32:23;9.68;;;5.28;;
26574;SDS011;67165;50.256;10.978;2023-12-28T03:34:49;9.65;;;5.50;;
26574;SDS011;67165;50.256;10.978;2023-12-28T03:37:14;7.72;;;5.13;;
26574;SDS011;67165;50.256;10.978;2023-12-28T03:39:40;8.90;;;5.55;;
26574;SDS011;67165;50.256;10.978;2023-12-28T03:42:06;9.48;;;5.55;;
26574;SDS011;67165;50.256;10.978;2023-12-28T03:44:31;10.27;;;5.75;;
26574;SDS011;67165;50.256;10.978;2023-12-28T03:46:57;8.25;;;5.25;;
26574;SDS011;67165;50.256;10.978;2023-12-28T03:49:23;10.40;;;5.13;;
26574;SDS011;67165;50.256;10.978;2023-12-28T03:51:49;7.57;;;4.80;;
26574;SDS011;67165;50.256;10.978;2023-12-28T03:54:16;9.15;;;5.38;;
26574;SDS011;67165;50.256;10.978;2023-12-28T03:56:42;7.90;;;4.85;;
26574;SDS011;67165;50.256;10.978;2023-12-28T03:59:08;9.13;;;4.80;;
26574;SDS011;67165;50.256;10.978;2023-12-28T04:01:34;10.35;;;5.10;;
26574;SDS011;67165;50.256;10.978;2023-12-28T04:04:00;8.15;;;5.10;;
26574;SDS011;67165;50.256;10.978;2023-12-28T04:06:26;8.23;;;5.30;;
26574;SDS011;67165;50.256;10.978;2023-12-28T04:08:52;7.57;;;4.88;;
26574;SDS011;67165;50.256;10.978;2023-12-28T04:11:17;6.90;;;5.03;;
26574;SDS011;67165;50.256;10.978;2023-12-28T04:13:43;7.47;;;4.47;;
26574;SDS011;67165;50.256;10.978;2023-12-28T04:16:12;8.60;;;5.05;;
26574;SDS011;67165;50.256;10.978;2023-12-28T04:18:38;7.30;;;4.40;;
26574;SDS011;67165;50.256;10.978;2023-12-28T04:21:07;6.78;;;4.85;;
26574;SDS011;67165;50.256;10.978;2023-12-28T04:23:33;6.78;;;4.57;;
26574;SDS011;67165;50.256;10.978;2023-12-28T04:25:59;9.48;;;4.63;;
26574;SDS011;67165;50.256;10.978;2023-12-28T04:28:25;8.80;;;5.10;;
26574;SDS011;67165;50.256;10.978;2023-12-28T04:30:50;7.63;;;5.03;;
26574;SDS011;67165;50.256;10.978;2023-12-28T04:33:19;8.65;;;4.68;;
26574;SDS011;67165;50.256;10.978;2023-12-28T04:35:44;6.80;;;4.78;;
26574;SDS011;67165;50.256;10.978;2023-12-28T04:38:11;7.70;;;4.68;;
26574;SDS011;67165;50.256;10.978;2023-12-28T04:40:40;8.32;;;4.45;;
26574;SDS011;67165;50.256;10.978;2023-12-28T04:43:06;8.23;;;4.50;;
26574;SDS011;67165;50.256;10.978;2023-12-28T04:45:32;7.45;;;4.47;;
26574;SDS011;67165;50.256;10.978;2023-12-28T04:47:57;7.32;;;4.55;;
26574;SDS011;67165;50.256;10.978;2023-12-28T04:50:24;7.85;;;4.40;;
26574;SDS011;67165;50.256;10.978;2023-12-28T04:52:49;8.82;;;4.95;;
26574;SDS011;67165;50.256;10.978;2023-12-28T04:55:15;11.50;;;4.55;;
26574;SDS011;67165;50.256;10.978;2023-12-28T04:57:41;8.77;;;4.68;;
26574;SDS011;67165;50.256;10.978;2023-12-28T05:00:07;6.70;;;4.07;;
26574;SDS011;67165;50.256;10.978;2023-12-28T05:02:33;7.30;;;4.32;;
26574;SDS011;67165;50.256;10.978;2023-12-28T05:04:59;7.05;;;4.47;;
26574;SDS011;67165;50.256;10.978;2023-12-28T05:07:25;5.97;;;4.05;;
26574;SDS011;67165;50.256;10.978;2023-12-28T05:09:50;7.22;;;4.10;;
26574;SDS011;67165;50.256;10.978;2023-12-28T05:12:16;9.25;;;4.22;;
26574;SDS011;67165;50.256;10.978;2023-12-28T05:14:42;6.22;;;3.95;;
26574;SDS011;67165;50.256;10.978;2023-12-28T05:17:08;5.50;;;4.00;;
26574;SDS011;67165;50.256;10.978;2023-12-28T05:19:33;6.70;;;3.92;;
26574;SDS011;67165;50.256;10.978;2023-12-28T05:21:59;8.43;;;3.80;;
26574;SDS011;67165;50.256;10.978;2023-12-28T05:24:31;10.20;;;3.80;;
26574;SDS011;67165;50.256;10.978;2023-12-28T05:26:57;6.55;;;4.18;;
26574;SDS011;67165;50.256;10.978;2023-12-28T05:29:23;7.13;;;4.10;;
26574;SDS011;67165;50.256;10.978;2023-12-28T05:31:48;7.60;;;4.00;;
26574;SDS011;67165;50.256;10.978;2023-12-28T05:34:14;6.55;;;3.78;;
26574;SDS011;67165;50.256;10.978;2023-12-28T05:36:40;6.82;;;3.88;;
26574;SDS011;67165;50.256;10.978;2023-12-28T05:39:06;6.68;;;3.75;;
26574;SDS011;67165;50.256;10.978;2023-12-28T05:41:34;6.38;;;3.67;;
26574;SDS011;67165;50.256;10.978;2023-12-28T05:44:00;7.07;;;3.42;;
26574;SDS011;67165;50.256;10.978;2023-12-28T05:46:25;6.00;;;3.53;;
26574;SDS011;67165;50.256;10.978;2023-12-28T05:48:51;5.43;;;3.50;;
26574;SDS011;67165;50.256;10.978;2023-12-28T05:51:17;6.13;;;3.60;;
26574;SDS011;67165;50.256;10.978;2023-12-28T05:53:43;5.55;;;3.45;;
26574;SDS011;67165;50.256;10.978;2023-12-28T05:56:09;5.50;;;3.17;;
26574;SDS011;67165;50.256;10.978;2023-12-28T05:58:34;6.82;;;3.65;;
26574;SDS011;67165;50.256;10.978;2023-12-28T06:01:01;6.45;;;3.55;;
26574;SDS011;67165;50.256;10.978;2023-12-28T06:03:29;4.50;;;3.13;;
26574;SDS011;67165;50.256;10.978;2023-12-28T06:05:56;5.45;;;3.63;;
26574;SDS011;67165;50.256;10.978;2023-12-28T06:08:21;5.55;;;3.45;;
26574;SDS011;67165;50.256;10.978;2023-12-28T06:10:47;5.25;;;3.38;;
26574;SDS011;67165;50.256;10.978;2023-12-28T06:13:12;6.03;;;3.50;;
26574;SDS011;67165;50.256;10.978;2023-12-28T06:15:38;7.65;;;3.60;;
26574;SDS011;67165;50.256;10.978;2023-12-28T06:18:04;5.47;;;3.15;;
26574;SDS011;67165;50.256;10.978;2023-12-28T06:20:29;7.65;;;3.53;;
26574;SDS011;67165;50.256;10.978;2023-12-28T06:22:55;7.47;;;3.65;;
26574;SDS011;67165;50.256;10.978;2023-12-28T06:25:21;8.93;;;3.92;;
26574;SDS011;67165;50.256;10.978;2023-12-28T06:27:46;6.65;;;3.75;;
26574;SDS011;67165;50.256;10.978;2023-12-28T06:30:12;7.72;;;3.85;;
26574;SDS011;67165;50.256;10.978;2023-12-28T06:32:38;8.68;;;4.22;;
26574;SDS011;67165;50.256;10.978;2023-12-28T06:35:04;6.72;;;3.88;;
26574;SDS011;67165;50.256;10.978;2023-12-28T06:37:30;7.07;;;3.95;;
26574;SDS011;67165;50.256;10.978;2023-12-28T06:39:56;5.32;;;3.72;;
26574;SDS011;67165;50.256;10.978;2023-12-28T06:42:21;4.68;;;3.65;;
26574;SDS011;67165;50.256;10.978;2023-12-28T06:44:47;6.97;;;3.92;;
26574;SDS011;67165;50.256;10.978;2023-12-28T06:47:13;7.55;;;4.72;;
26574;SDS011;67165;50.256;10.978;2023-12-28T06:49:39;10.55;;;5.20;;
26574;SDS011;67165;50.256;10.978;2023-12-28T06:52:04;11.60;;;4.90;;
26574;SDS011;67165;50.256;10.978;2023-12-28T06:54:30;6.80;;;4.03;;
26574;SDS011;67165;50.256;10.978;2023-12-28T06:56:55;7.10;;;3.80;;
26574;SDS011;67165;50.256;10.978;2023-12-28T06:59:21;6.07;;;4.05;;
26574;SDS011;67165;50.256;10.978;2023-12-28T07:01:47;6.03;;;3.50;;
26574;SDS011;67165;50.256;10.978;2023-12-28T07:04:14;7.00;;;3.90;;
26574;SDS011;67165;50.256;10.978;2023-12-28T07:06:40;4.85;;;3.20;;
26574;SDS011;67165;50.256;10.978;2023-12-28T07:09:06;8.43;;;4.20;;
26574;SDS011;67165;50.256;10.978;2023-12-28T07:11:31;5.93;;;3.60;;
26574;SDS011;67165;50.256;10.978;2023-12-28T07:13:57;5.53;;;3.30;;
26574;SDS011;67165;50.256;10.978;2023-12-28T07:16:23;6.00;;;3.53;;
26574;SDS011;67165;50.256;10.978;2023-12-28T07:18:48;5.45;;;3.55;;
26574;SDS011;67165;50.256;10.978;2023-12-28T07:21:14;6.75;;;3.97;;
26574;SDS011;67165;50.256;10.978;2023-12-28T07:23:40;6.40;;;3.88;;
26574;SDS011;67165;50.256;10.978;2023-12-28T07:26:05;8.02;;;5.18;;
26574;SDS011;67165;50.256;10.978;2023-12-28T07:28:31;6.85;;;4.30;;
26574;SDS011;67165;50.256;10.978;2023-12-28T07:30:57;9.68;;;4.70;;
26574;SDS011;67165;50.256;10.978;2023-12-28T07:33:22;10.85;;;6.20;;
26574;SDS011;67165;50.256;10.978;2023-12-28T07:35:48;7.50;;;5.28;;
26574;SDS011;67165;50.256;10.978;2023-12-28T07:38:14;7.32;;;4.90;;
26574;SDS011;67165;50.256;10.978;2023-12-28T07:40:40;7.95;;;5.32;;
26574;SDS011;67165;50.256;10.978;2023-12-28T07:43:06;7.82;;;5.15;;
26574;SDS011;67165;50.256;10.978;2023-12-28T07:45:31;8.05;;;4.93;;
26574;SDS011;67165;50.256;10.978;2023-12-28T07:47:58;9.73;;;4.63;;
26574;SDS011;67165;50.256;10.978;2023-12-28T07:50:24;9.18;;;5.70;;
26574;SDS011;67165;50.256;10.978;2023-12-28T07:52:50;9.60;;;4.82;;
26574;SDS011;67165;50.256;10.978;2023-12-28T07:55:16;9.80;;;5.50;;
26574;SDS011;67165;50.256;10.978;2023-12-28T07:57:42;8.38;;;5.40;;
26574;SDS011;67165;50.256;10.978;2023-12-28T08:00:08;8.57;;;5.55;;
26574;SDS011;67165;50.256;10.978;2023-12-28T08:02:34;9.23;;;5.63;;
26574;SDS011;67165;50.256;10.978;2023-12-28T08:05:00;8.20;;;4.95;;
26574;SDS011;67165;50.256;10.978;2023-12-28T08:07:25;7.80;;;4.25;;
26574;SDS011;67165;50.256;10.978;2023-12-28T08:09:51;6.32;;;4.32;;
26574;SDS011;67165;50.256;10.978;2023-12-28T08:12:16;6.03;;;4.15;;
26574;SDS011;67165;50.256;10.978;2023-12-28T08:14:43;9.77;;;4.93;;
26574;SDS011;67165;50.256;10.978;2023-12-28T08:17:09;7.75;;;4.68;;
26574;SDS011;67165;50.256;10.978;2023-12-28T08:19:34;10.70;;;5.30;;
26574;SDS011;67165;50.256;10.978;2023-12-28T08:22:00;11.98;;;5.40;;
26574;SDS011;67165;50.256;10.978;2023-12-28T08:24:27;7.90;;;4.85;;
26574;SDS011;67165;50.256;10.978;2023-12-28T08:26:53;6.90;;;4.15;;
26574;SDS011;67165;50.256;10.978;2023-12-28T08:29:18;7.78;;;3.97;;
26574;SDS011;67165;50.256;10.978;2023-12-28T08:31:44;6.63;;;4.07;;
26574;SDS011;67165;50.256;10.978;2023-12-28T08:34:10;7.22;;;3.72;;
26574;SDS011;67165;50.256;10.978;2023-12-28T08:36:35;8.00;;;4.70;;
26574;SDS011;67165;50.256;10.978;2023-12-28T08:39:01;7.13;;;4.40;;
26574;SDS011;67165;50.256;10.978;2023-12-28T08:41:27;7.05;;;4.70;;
26574;SDS011;67165;50.256;10.978;2023-12-28T08:43:53;7.32;;;4.57;;
26574;SDS011;67165;50.256;10.978;2023-12-28T08:46:21;8.77;;;4.95;;
26574;SDS011;67165;50.256;10.978;2023-12-28T08:48:47;6.57;;;4.25;;
26574;SDS011;67165;50.256;10.978;2023-12-28T08:51:13;4.43;;;3.00;;
26574;SDS011;67165;50.256;10.978;2023-12-28T08:53:40;5.30;;;3.05;;
26574;SDS011;67165;50.256;10.978;2023-12-28T08:56:16;4.57;;;3.38;;
26574;SDS011;67165;50.256;10.978;2023-12-28T08:58:43;5.80;;;3.10;;
26574;SDS011;67165;50.256;10.978;2023-12-28T09:01:15;5.13;;;2.80;;
26574;SDS011;67165;50.256;10.978;2023-12-28T09:03:47;4.05;;;2.63;;
26574;SDS011;67165;50.256;10.978;2023-12-28T09:06:14;5.97;;;2.55;;
26574;SDS011;67165;50.256;10.978;2023-12-28T09:08:41;6.57;;;2.75;;
26574;SDS011;67165;50.256;10.978;2023-12-28T09:11:09;3.60;;;2.50;;
26574;SDS011;67165;50.256;10.978;2023-12-28T09:13:38;3.60;;;2.70;;
26574;SDS011;67165;50.256;10.978;2023-12-28T09:16:09;5.90;;;2.95;;
26574;SDS011;67165;50.256;10.978;2023-12-28T09:18:36;4.72;;;2.70;;
26574;SDS011;67165;50.256;10.978;2023-12-28T09:21:06;4.05;;;2.80;;
26574;SDS011;67165;50.256;10.978;2023-12-28T09:23:33;5.90;;;2.88;;
26574;SDS011;67165;50.256;10.978;2023-12-28T09:26:02;4.65;;;3.10;;
26574;SDS011;67165;50.256;10.978;2023-12-28T09:28:29;3.67;;;2.75;;
26574;SDS011;67165;50.256;10.978;2023-12-28T09:30:55;3.88;;;2.70;;
26574;SDS011;67165;50.256;10.978;2023-12-28T09:33:21;3.85;;;2.80;;
26574;SDS011;67165;50.256;10.978;2023-12-28T09:35:47;5.55;;;2.80;;
26574;SDS011;67165;50.256;10.978;2023-12-28T09:38:16;4.28;;;2.60;;
26574;SDS011;67165;50.256;10.978;2023-12-28T09:40:42;3.85;;;2.60;;
26574;SDS011;67165;50.256;10.978;2023-12-28T09:45:58;6.00;;;2.83;;
26574;SDS011;67165;50.256;10.978;2023-12-28T09:48:24;3.65;;;2.38;;
26574;SDS011;67165;50.256;10.978;2023-12-28T09:53:16;4.78;;;3.20;;
26574;SDS011;67165;50.256;10.978;2023-12-28T09:55:42;4.88;;;3.08;;
26574;SDS011;67165;50.256;10.978;2023-12-28T09:58:09;5.57;;;2.80;;
26574;SDS011;67165;50.256;10.978;2023-12-28T10:00:35;4.95;;;2.60;;
26574;SDS011;67165;50.256;10.978;2023-12-28T10:03:02;3.88;;;2.72;;
26574;SDS011;67165;50.256;10.978;2023-12-28T10:05:28;4.35;;;2.90;;
26574;SDS011;67165;50.256;10.978;2023-12-28T10:07:53;3.47;;;2.53;;
26574;SDS011;67165;50.256;10.978;2023-12-28T10:10:21;4.30;;;2.53;;
26574;SDS011;67165;50.256;10.978;2023-12-28T10:12:47;3.97;;;2.70;;
26574;SDS011;67165;50.256;10.978;2023-12-28T10:15:13;4.40;;;2.83;;
26574;SDS011;67165;50.256;10.978;2023-12-28T10:17:38;5.35;;;3.22;;
26574;SDS011;67165;50.256;10.978;2023-12-28T10:20:05;8.70;;;3.70;;
26574;SDS011;67165;50.256;10.978;2023-12-28T10:22:34;4.78;;;3.13;;
26574;SDS011;67165;50.256;10.978;2023-12-28T10:25:04;5.28;;;3.60;;
26574;SDS011;67165;50.256;10.978;2023-12-28T10:27:30;5.68;;;4.13;;
26574;SDS011;67165;50.256;10.978;2023-12-28T10:29:57;6.43;;;4.35;;
26574;SDS011;67165;50.256;10.978;2023-12-28T10:32:23;5.20;;;3.40;;
26574;SDS011;67165;50.256;10.978;2023-12-28T10:34:50;7.40;;;3.40;;
26574;SDS011;67165;50.256;10.978;2023-12-28T10:37:17;5.15;;;3.20;;
26574;SDS011;67165;50.256;10.978;2023-12-28T10:39:46;3.72;;;2.67;;
26574;SDS011;67165;50.256;10.978;2023-12-28T10:42:14;4.15;;;2.50;;
26574;SDS011;67165;50.256;10.978;2023-12-28T10:44:59;3.17;;;2.35;;
26574;SDS011;67165;50.256;10.978;2023-12-28T10:47:36;4.50;;;2.22;;
26574;SDS011;67165;50.256;10.978;2023-12-28T10:50:03;3.70;;;2.13;;
26574;SDS011;67165;50.256;10.978;2023-12-28T10:52:30;5.43;;;3.30;;
26574;SDS011;67165;50.256;10.978;2023-12-28T11:01:05;4.03;;;2.53;;
26574;SDS011;67165;50.256;10.978;2023-12-28T11:03:34;4.65;;;2.30;;
26574;SDS011;67165;50.256;10.978;2023-12-28T11:06:06;3.05;;;2.20;;
26574;SDS011;67165;50.256;10.978;2023-12-28T11:08:33;4.65;;;2.58;;
26574;SDS011;67165;50.256;10.978;2023-12-28T11:11:00;4.43;;;2.30;;
26574;SDS011;67165;50.256;10.978;2023-12-28T11:13:29;3.65;;;2.20;;
26574;SDS011;67165;50.256;10.978;2023-12-28T11:15:57;4.50;;;2.38;;
26574;SDS011;67165;50.256;10.978;2023-12-28T11:18:24;6.63;;;2.47;;
26574;SDS011;67165;50.256;10.978;2023-12-28T11:20:53;4.97;;;3.63;;
26574;SDS011;67165;50.256;10.978;2023-12-28T11:23:18;6.38;;;3.90;;
26574;SDS011;67165;50.256;10.978;2023-12-28T11:25:44;3.47;;;2.40;;
26574;SDS011;67165;50.256;10.978;2023-12-28T11:28:11;3.80;;;2.28;;
26574;SDS011;67165;50.256;10.978;2023-12-28T11:30:37;4.18;;;2.60;;
26574;SDS011;67165;50.256;10.978;2023-12-28T11:33:06;3.45;;;2.25;;
26574;SDS011;67165;50.256;10.978;2023-12-28T11:35:35;2.42;;;1.80;;
26574;SDS011;67165;50.256;10.978;2023-12-28T11:38:06;6.35;;;2.05;;
26574;SDS011;67165;50.256;10.978;2023-12-28T11:40:44;4.30;;;2.17;;
26574;SDS011;67165;50.256;10.978;2023-12-28T11:43:19;3.58;;;1.90;;
26574;SDS011;67165;50.256;10.978;2023-12-28T11:45:54;5.78;;;2.15;;
26574;SDS011;67165;50.256;10.978;2023-12-28T11:48:27;3.35;;;1.92;;
26574;SDS011;67165;50.256;10.978;2023-12-28T11:50:59;2.67;;;1.85;;
26574;SDS011;67165;50.256;10.978;2023-12-28T11:53:26;2.90;;;1.80;;
26574;SDS011;67165;50.256;10.978;2023-12-28T11:55:52;2.38;;;1.98;;
26574;SDS011;67165;50.256;10.978;2023-12-28T11:58:26;2.83;;;2.00;;
26574;SDS011;67165;50.256;10.978;2023-12-28T12:00:51;3.60;;;2.00;;
26574;SDS011;67165;50.256;10.978;2023-12-28T12:03:17;2.58;;;1.75;;
26574;SDS011;67165;50.256;10.978;2023-12-28T12:05:42;3.55;;;2.08;;
26574;SDS011;67165;50.256;10.978;2023-12-28T12:08:09;2.88;;;1.80;;
26574;SDS011;67165;50.256;10.978;2023-12-28T12:10:38;2.50;;;1.83;;
26574;SDS011;67165;50.256;10.978;2023-12-28T12:13:04;2.70;;;1.90;;
26574;SDS011;67165;50.256;10.978;2023-12-28T12:15:30;6.25;;;1.80;;
26574;SDS011;67165;50.256;10.978;2023-12-28T12:17:56;2.80;;;1.90;;
26574;SDS011;67165;50.256;10.978;2023-12-28T12:20:22;4.50;;;2.38;;
26574;SDS011;67165;50.256;10.978;2023-12-28T12:22:48;3.38;;;2.03;;
26574;SDS011;67165;50.256;10.978;2023-12-28T12:25:14;3.45;;;2.25;;
26574;SDS011;67165;50.256;10.978;2023-12-28T12:27:41;5.78;;;2.67;;
26574;SDS011;67165;50.256;10.978;2023-12-28T12:30:06;5.60;;;3.13;;
26574;SDS011;67165;50.256;10.978;2023-12-28T12:32:33;7.47;;;2.90;;
26574;SDS011;67165;50.256;10.978;2023-12-28T12:35:04;6.18;;;2.65;;
26574;SDS011;67165;50.256;10.978;2023-12-28T12:37:30;3.42;;;2.10;;
26574;SDS011;67165;50.256;10.978;2023-12-28T12:39:56;3.90;;;2.10;;
26574;SDS011;67165;50.256;10.978;2023-12-28T12:42:22;4.53;;;2.40;;
26574;SDS011;67165;50.256;10.978;2023-12-28T12:44:47;4.65;;;2.35;;
26574;SDS011;67165;50.256;10.978;2023-12-28T12:47:13;3.38;;;2.10;;
26574;SDS011;67165;50.256;10.978;2023-12-28T12:49:39;5.22;;;2.20;;
26574;SDS011;67165;50.256;10.978;2023-12-28T12:52:07;3.97;;;2.22;;
26574;SDS011;67165;50.256;10.978;2023-12-28T12:54:33;4.55;;;2.63;;
26574;SDS011;67165;50.256;10.978;2023-12-28T12:56:58;4.18;;;2.50;;
26574;SDS011;67165;50.256;10.978;2023-12-28T12:59:24;4.32;;;2.67;;
26574;SDS011;67165;50.256;10.978;2023-12-28T13:01:50;5.38;;;2.60;;
26574;SDS011;67165;50.256;10.978;2023-12-28T13:04:18;5.25;;;2.40;;
26574;SDS011;67165;50.256;10.978;2023-12-28T13:06:44;4.93;;;2.60;;
26574;SDS011;67165;50.256;10.978;2023-12-28T13:09:10;5.40;;;2.90;;
26574;SDS011;67165;50.256;10.978;2023-12-28T13:11:38;6.68;;;3.38;;
26574;SDS011;67165;50.256;10.978;2023-12-28T13:14:04;7.40;;;3.50;;
26574;SDS011;67165;50.256;10.978;2023-12-28T13:16:29;6.25;;;3.55;;
26574;SDS011;67165;50.256;10.978;2023-12-28T13:18:55;5.40;;;3.00;;
26574;SDS011;67165;50.256;10.978;2023-12-28T13:21:21;4.95;;;3.20;;
26574;SDS011;67165;50.256;10.978;2023-12-28T13:23:47;5.65;;;3.25;;
26574;SDS011;67165;50.256;10.978;2023-12-28T13:26:13;4.80;;;2.90;;
26574;SDS011;67165;50.256;10.978;2023-12-28T13:28:38;5.82;;;3.55;;
26574;SDS011;67165;50.256;10.978;2023-12-28T13:31:04;5.88;;;3.15;;
26574;SDS011;67165;50.256;10.978;2023-12-28T13:33:30;4.90;;;2.85;;
26574;SDS011;67165;50.256;10.978;2023-12-28T13:35:56;4.28;;;2.42;;
26574;SDS011;67165;50.256;10.978;2023-12-28T13:38:23;5.35;;;2.58;;
26574;SDS011;67165;50.256;10.978;2023-12-28T13:40:48;3.17;;;2.50;;
26574;SDS011;67165;50.256;10.978;2023-12-28T13:43:14;4.38;;;2.60;;
26574;SDS011;67165;50.256;10.978;2023-12-28T13:45:39;3.92;;;2.42;;
26574;SDS011;67165;50.256;10.978;2023-12-28T13:48:05;4.93;;;2.20;;
26574;SDS011;67165;50.256;10.978;2023-12-28T13:50:31;3.42;;;2.30;;
26574;SDS011;67165;50.256;10.978;2023-12-28T13:52:57;3.83;;;2.20;;
26574;SDS011;67165;50.256;10.978;2023-12-28T13:55:23;4.13;;;2.15;;
26574;SDS011;67165;50.256;10.978;2023-12-28T13:57:48;4.65;;;2.10;;
26574;SDS011;67165;50.256;10.978;2023-12-28T14:00:14;4.50;;;2.10;;
26574;SDS011;67165;50.256;10.978;2023-12-28T14:02:40;3.70;;;2.40;;
26574;SDS011;67165;50.256;10.978;2023-12-28T14:05:06;3.60;;;2.20;;
26574;SDS011;67165;50.256;10.978;2023-12-28T14:07:32;3.97;;;2.20;;
26574;SDS011;67165;50.256;10.978;2023-12-28T14:09:58;3.38;;;2.20;;
26574;SDS011;67165;50.256;10.978;2023-12-28T14:12:23;5.07;;;2.60;;
26574;SDS011;67165;50.256;10.978;2023-12-28T14:14:49;5.97;;;2.63;;
26574;SDS011;67165;50.256;10.978;2023-12-28T14:17:15;4.10;;;2.50;;
26574;SDS011;67165;50.256;10.978;2023-12-28T14:19:44;4.43;;;2.35;;
26574;SDS011;67165;50.256;10.978;2023-12-28T14:22:11;3.95;;;2.40;;
26574;SDS011;67165;50.256;10.978;2023-12-28T14:24:37;6.35;;;2.38;;
26574;SDS011;67165;50.256;10.978;2023-12-28T14:27:03;4.95;;;2.53;;
26574;SDS011;67165;50.256;10.978;2023-12-28T14:29:29;4.80;;;2.83;;
26574;SDS011;67165;50.256;10.978;2023-12-28T14:31:55;4.63;;;2.65;;
26574;SDS011;67165;50.256;10.978;2023-12-28T14:34:21;5.95;;;2.63;;
26574;SDS011;67165;50.256;10.978;2023-12-28T14:36:47;7.90;;;2.97;;
26574;SDS011;67165;50.256;10.978;2023-12-28T14:39:15;4.32;;;2.70;;